Time;durP1;ratioP1;P1;durP2;ratioP2;P2;SDS_P1;SDS_P2;PMS_P1;PMS_P2;Temp;Humidity;BMP_temperature;BMP_pressure;BME280_temperature;BME280_humidity;BME280_pressure;Samples;Min_cycle;Max_cycle;Signal;HPM_P1;HPM_P2
2022/07/08 00:01:02;;;;;;;5.7;3.3;;;;;;;;;;;;;
2022/07/08 00:03:30;;;;;;;3.1;2.9;;;;;;;;;;;;;
2022/07/08 00:05:55;;;;;;;3.3;3;;;;;;;;;;;;;
2022/07/08 00:08:20;;;;;;;3.5;3.2;;;;;;;;;;;;;
2022/07/08 00:10:46;;;;;;;3.7;3.3;;;;;;;;;;;;;
2022/07/08 00:13:11;;;;;;;3.5;3.2;;;;;;;;;;;;;
2022/07/08 00:15:36;;;;;;;3.8;3.4;;;;;;;;;;;;;
2022/07/08 00:18:02;;;;;;;3.7;3.4;;;;;;;;;;;;;
2022/07/08 00:20:27;;;;;;;4.6;3.6;;;;;;;;;;;;;
2022/07/08 00:22:53;;;;;;;3.2;2.9;;;;;;;;;;;;;
2022/07/08 00:25:19;;;;;;;3.5;3.2;;;;;;;;;;;;;
2022/07/08 00:27:45;;;;;;;4.3;3.8;;;;;;;;;;;;;
2022/07/08 00:30:10;;;;;;;4.6;4;;;;;;;;;;;;;
2022/07/08 00:32:37;;;;;;;3.9;3.6;;;;;;;;;;;;;
2022/07/08 00:35:02;;;;;;;4.1;3.8;;;;;;;;;;;;;
2022/07/08 00:37:28;;;;;;;5.5;3.8;;;;;;;;;;;;;
2022/07/08 00:39:53;;;;;;;3.9;3.5;;;;;;;;;;;;;
2022/07/08 00:42:19;;;;;;;3.9;3.5;;;;;;;;;;;;;
2022/07/08 00:44:44;;;;;;;4;3.4;;;;;;;;;;;;;
2022/07/08 00:47:10;;;;;;;3.5;3.2;;;;;;;;;;;;;
2022/07/08 00:49:36;;;;;;;3.6;3.3;;;;;;;;;;;;;
2022/07/08 00:52:01;;;;;;;6.2;3.9;;;;;;;;;;;;;
2022/07/08 00:54:26;;;;;;;4.2;3.4;;;;;;;;;;;;;
2022/07/08 00:56:52;;;;;;;4.3;3.9;;;;;;;;;;;;;
2022/07/08 00:59:17;;;;;;;4.9;3.8;;;;;;;;;;;;;
2022/07/08 01:01:42;;;;;;;3.6;3.3;;;;;;;;;;;;;
2022/07/08 01:04:07;;;;;;;4;3.6;;;;;;;;;;;;;
2022/07/08 01:06:34;;;;;;;5.1;3.6;;;;;;;;;;;;;
2022/07/08 01:08:59;;;;;;;3.8;3.5;;;;;;;;;;;;;
2022/07/08 01:11:25;;;;;;;4.4;3.7;;;;;;;;;;;;;
2022/07/08 01:13:50;;;;;;;4.3;3.9;;;;;;;;;;;;;
2022/07/08 01:16:17;;;;;;;3.7;3.4;;;;;;;;;;;;;
2022/07/08 01:18:42;;;;;;;4.4;3.7;;;;;;;;;;;;;
2022/07/08 01:21:07;;;;;;;4.5;4.1;;;;;;;;;;;;;
2022/07/08 01:23:32;;;;;;;4.6;3.8;;;;;;;;;;;;;
2022/07/08 01:25:57;;;;;;;4.8;3.6;;;;;;;;;;;;;
2022/07/08 01:28:22;;;;;;;4;3.6;;;;;;;;;;;;;
2022/07/08 01:30:48;;;;;;;4.1;3.7;;;;;;;;;;;;;
2022/07/08 01:33:13;;;;;;;4;3.7;;;;;;;;;;;;;
2022/07/08 01:35:40;;;;;;;3.9;3.5;;;;;;;;;;;;;
2022/07/08 01:38:05;;;;;;;4;3.6;;;;;;;;;;;;;
2022/07/08 01:40:32;;;;;;;4.2;3.4;;;;;;;;;;;;;
2022/07/08 01:42:57;;;;;;;4.2;3.5;;;;;;;;;;;;;
2022/07/08 01:45:24;;;;;;;3.6;3.3;;;;;;;;;;;;;
2022/07/08 01:47:49;;;;;;;4.3;3.1;;;;;;;;;;;;;
2022/07/08 01:50:17;;;;;;;3.5;3.2;;;;;;;;;;;;;
2022/07/08 01:52:42;;;;;;;3.8;3.4;;;;;;;;;;;;;
2022/07/08 01:55:07;;;;;;;4.6;3.6;;;;;;;;;;;;;
2022/07/08 01:57:34;;;;;;;4.2;3.8;;;;;;;;;;;;;
2022/07/08 01:59:57;;;;;;;4.4;4;;;;;;;;;;;;;
2022/07/08 02:02:22;;;;;;;4.8;4.4;;;;;;;;;;;;;
2022/07/08 02:04:47;;;;;;;4.5;4.1;;;;;;;;;;;;;
2022/07/08 02:07:13;;;;;;;4.3;3.9;;;;;;;;;;;;;
2022/07/08 02:09:38;;;;;;;4.5;4.1;;;;;;;;;;;;;
2022/07/08 02:12:22;;;;;;;4.8;4.4;;;;;;;;;;;;;
2022/07/08 02:14:29;;;;;;;4.2;3.7;;;;;;;;;;;;;
2022/07/08 02:16:54;;;;;;;3.4;3.1;;;;;;;;;;;;;
2022/07/08 02:19:19;;;;;;;3.6;3.3;;;;;;;;;;;;;
2022/07/08 02:21:44;;;;;;;3.5;3.2;;;;;;;;;;;;;
2022/07/08 02:24:10;;;;;;;3.6;3.3;;;;;;;;;;;;;
2022/07/08 02:26:35;;;;;;;3.5;3.2;;;;;;;;;;;;;
2022/07/08 02:29:01;;;;;;;4.4;2.9;;;;;;;;;;;;;
2022/07/08 02:31:26;;;;;;;3.6;3.2;;;;;;;;;;;;;
2022/07/08 02:33:52;;;;;;;3.4;2.8;;;;;;;;;;;;;
2022/07/08 02:36:17;;;;;;;4.9;3.4;;;;;;;;;;;;;
2022/07/08 02:38:43;;;;;;;3.1;2.9;;;;;;;;;;;;;
2022/07/08 02:41:09;;;;;;;3.5;3.2;;;;;;;;;;;;;
2022/07/08 02:43:36;;;;;;;3.4;3.1;;;;;;;;;;;;;
2022/07/08 02:46:01;;;;;;;3.4;3.1;;;;;;;;;;;;;
2022/07/08 02:48:28;;;;;;;5.6;3.6;;;;;;;;;;;;;
2022/07/08 02:50:53;;;;;;;3.9;3.4;;;;;;;;;;;;;
2022/07/08 02:53:19;;;;;;;3.6;3.3;;;;;;;;;;;;;
2022/07/08 02:55:44;;;;;;;3.6;3.3;;;;;;;;;;;;;
2022/07/08 02:58:10;;;;;;;4;3.6;;;;;;;;;;;;;
2022/07/08 03:00:35;;;;;;;3.7;3.4;;;;;;;;;;;;;
2022/07/08 03:03:02;;;;;;;3.3;3.1;;;;;;;;;;;;;
2022/07/08 03:05:27;;;;;;;4;3.6;;;;;;;;;;;;;
2022/07/08 03:07:53;;;;;;;3.5;3.1;;;;;;;;;;;;;
2022/07/08 03:10:18;;;;;;;3.3;3;;;;;;;;;;;;;
2022/07/08 03:12:46;;;;;;;3.7;3.4;;;;;;;;;;;;;
2022/07/08 03:15:11;;;;;;;5.5;3.8;;;;;;;;;;;;;
2022/07/08 03:17:38;;;;;;;4.6;3.7;;;;;;;;;;;;;
2022/07/08 03:20:03;;;;;;;3.5;3.2;;;;;;;;;;;;;
2022/07/08 03:22:30;;;;;;;4.2;3.8;;;;;;;;;;;;;
2022/07/08 03:24:55;;;;;;;3.9;3.6;;;;;;;;;;;;;
2022/07/08 03:27:20;;;;;;;4.2;3.8;;;;;;;;;;;;;
2022/07/08 03:29:45;;;;;;;3.9;3.5;;;;;;;;;;;;;
2022/07/08 03:32:11;;;;;;;4.5;3.6;;;;;;;;;;;;;
2022/07/08 03:34:36;;;;;;;3.4;3.1;;;;;;;;;;;;;
2022/07/08 03:37:03;;;;;;;3.9;3.5;;;;;;;;;;;;;
2022/07/08 03:39:28;;;;;;;4.1;3.3;;;;;;;;;;;;;
2022/07/08 03:41:54;;;;;;;3.3;2.9;;;;;;;;;;;;;
2022/07/08 03:44:19;;;;;;;4.1;3.1;;;;;;;;;;;;;
2022/07/08 03:46:45;;;;;;;3.7;3.4;;;;;;;;;;;;;
2022/07/08 03:49:10;;;;;;;4;3.4;;;;;;;;;;;;;
2022/07/08 03:51:36;;;;;;;3.9;3.2;;;;;;;;;;;;;
2022/07/08 03:54:01;;;;;;;3.4;3.2;;;;;;;;;;;;;
2022/07/08 03:56:27;;;;;;;3.7;3.4;;;;;;;;;;;;;
2022/07/08 03:58:52;;;;;;;3.8;3.5;;;;;;;;;;;;;
2022/07/08 04:02:33;;;;;;;3.9;3.6;;;;;;;14.88;96.07715;947.3606;;;;
2022/07/08 04:04:58;;;;;;;4.9;3.7;;;;;;;14.9;95.67773;947.368;;;;
2022/07/08 04:07:23;;;;;;;4.2;3.9;;;;;;;14.85;96.08984;947.3524;;;;
2022/07/08 04:09:52;;;;;;;4.8;3.8;;;;;;;14.91;96.19824;947.4282;;;;
2022/07/08 04:12:18;;;;;;;4.1;3.7;;;;;;;14.88;96.59375;947.4295;;;;
2022/07/08 04:14:46;;;;;;;4.3;3.9;;;;;;;14.94;96.29688;947.3547;;;;
2022/07/08 04:17:17;;;;;;;4.1;3.4;;;;;;;14.81;95.85352;947.4543;;;;
2022/07/08 04:19:45;;;;;;;4;3.6;;;;;;;14.8;96.15137;947.4896;;;;
2022/07/08 04:22:10;;;;;;;4;3.7;;;;;;;14.84;96.19434;947.4653;;;;
2022/07/08 04:24:37;;;;;;;4.1;3.8;;;;;;;14.89;96.13477;947.5531;;;;
2022/07/08 04:27:02;;;;;;;3.7;3.4;;;;;;;14.81;96.82031;947.5474;;;;
2022/07/08 04:29:27;;;;;;;5;3.5;;;;;;;14.76;96.68359;947.4957;;;;
2022/07/08 04:31:57;;;;;;;4.6;3.6;;;;;;;14.73;96.7793;947.6092;;;;
2022/07/08 04:34:22;;;;;;;3.6;3.3;;;;;;;14.85;96.00977;947.6282;;;;
2022/07/08 04:36:49;;;;;;;4.8;4.1;;;;;;;14.88;96.3291;947.6461;;;;
2022/07/08 04:39:14;;;;;;;4.3;3.9;;;;;;;14.91;95.50684;947.6785;;;;
2022/07/08 04:41:44;;;;;;;4.9;4.4;;;;;;;14.89;95.70996;947.6373;;;;
2022/07/08 04:44:13;;;;;;;4.4;4;;;;;;;14.85;95.44629;947.7365;;;;
2022/07/08 04:46:38;;;;;;;6.2;4.8;;;;;;;14.88;95.26953;947.7159;;;;
2022/07/08 04:49:10;;;;;;;4.5;4.1;;;;;;;14.96;95.12598;947.824;;;;
2022/07/08 04:51:40;;;;;;;4.7;4.2;;;;;;;15.01;95.83789;947.8484;;;;
2022/07/08 04:54:10;;;;;;;4.6;4.2;;;;;;;15.02;96.32617;947.8016;;;;
2022/07/08 04:56:35;;;;;;;4.5;4.1;;;;;;;14.99;96.5166;947.7625;;;;
2022/07/08 04:59:01;;;;;;;4.5;4.1;;;;;;;15.05;96.97852;947.7656;;;;
2022/07/08 05:01:29;;;;;;;4.7;4.3;;;;;;;15.13;96.33887;947.8015;;;;
2022/07/08 05:03:58;;;;;;;4.7;4.1;;;;;;;15.14;96.06348;947.8666;;;;
2022/07/08 05:06:28;;;;;;;4.3;3.9;;;;;;;15.17;95.25;947.8619;;;;
2022/07/08 05:08:53;;;;;;;4.1;3.7;;;;;;;15.24;93.93848;947.9077;;;;
2022/07/08 05:11:21;;;;;;;4;3.5;;;;;;;15.28;93.0918;947.8959;;;;
2022/07/08 05:13:46;;;;;;;4.2;3.9;;;;;;;15.23;94.20215;947.9189;;;;
2022/07/08 05:16:15;;;;;;;4.7;4.2;;;;;;;15.13;94.49219;947.8641;;;;
2022/07/08 05:18:45;;;;;;;4.7;4.3;;;;;;;15.18;94.36523;947.846;;;;
2022/07/08 05:21:13;;;;;;;4.7;4.3;;;;;;;15.2;94.53125;947.8718;;;;
2022/07/08 05:23:37;;;;;;;4.3;4;;;;;;;15.21;94.625;947.9023;;;;
2022/07/08 05:26:07;;;;;;;4.4;4.1;;;;;;;15.22;94.76563;947.9148;;;;
2022/07/08 05:28:32;;;;;;;4.8;4.4;;;;;;;15.24;95.27734;947.9213;;;;
2022/07/08 05:30:59;;;;;;;4.6;4.2;;;;;;;15.35;95.15332;948.1188;;;;
2022/07/08 05:33:24;;;;;;;7.3;5.2;;;;;;;15.23;94.70996;948.0497;;;;
2022/07/08 05:35:55;;;;;;;4.6;4.2;;;;;;;15.1;90.9209;948.0492;;;;
2022/07/08 05:38:23;;;;;;;4.4;3.2;;;;;;;14.69;88.54102;947.9913;;;;
2022/07/08 05:40:48;;;;;;;6;3;;;;;;;14.58;88.85254;948.1247;;;;
2022/07/08 05:43:18;;;;;;;5.8;3.2;;;;;;;14.6;88.97363;948.1273;;;;
2022/07/08 05:45:46;;;;;;;4.5;2.6;;;;;;;14.45;89.01172;948.0714;;;;
2022/07/08 05:48:11;;;;;;;5.8;3.1;;;;;;;14.45;87.84766;948.1852;;;;
2022/07/08 05:50:40;;;;;;;6.4;2.9;;;;;;;14.36;89.21191;948.1667;;;;
2022/07/08 05:53:09;;;;;;;7.3;3.5;;;;;;;14.33;89.37695;948.277;;;;
2022/07/08 05:55:34;;;;;;;6.6;3.2;;;;;;;14.5;88.64258;948.2338;;;;
2022/07/08 05:58:01;;;;;;;3.9;3.1;;;;;;;14.64;87.5957;948.2314;;;;
2022/07/08 06:00:26;;;;;;;6.4;3.6;;;;;;;14.52;86.58301;948.2508;;;;
2022/07/08 06:02:56;;;;;;;4.8;2.7;;;;;;;14.55;87.40918;948.2078;;;;
2022/07/08 06:05:21;;;;;;;4.8;2.4;;;;;;;14.58;86.83594;948.2922;;;;
2022/07/08 06:07:53;;;;;;;4.5;2.6;;;;;;;14.34;86.25977;948.2659;;;;
2022/07/08 06:10:22;;;;;;;7;2.9;;;;;;;14.38;87.60254;948.2438;;;;
2022/07/08 06:12:47;;;;;;;4.5;2.9;;;;;;;14.29;88.12598;948.335;;;;
2022/07/08 06:15:21;;;;;;;7.5;3.2;;;;;;;14.45;87.66309;948.3206;;;;
2022/07/08 06:17:52;;;;;;;3.6;2.9;;;;;;;14.36;88.6709;948.3903;;;;
2022/07/08 06:20:21;;;;;;;5.4;2.7;;;;;;;14.43;88.67383;948.4122;;;;
2022/07/08 06:22:50;;;;;;;5.4;3;;;;;;;14.54;87.29004;948.4233;;;;
2022/07/08 06:25:14;;;;;;;4;2.7;;;;;;;14.74;87.14551;948.4633;;;;
2022/07/08 06:27:42;;;;;;;5;2.5;;;;;;;14.62;87.68457;948.4774;;;;
2022/07/08 06:30:07;;;;;;;3.8;2.7;;;;;;;14.82;87.12695;948.514;;;;
2022/07/08 06:32:35;;;;;;;6.8;3;;;;;;;14.91;87.06445;948.4749;;;;
2022/07/08 06:35:05;;;;;;;6.2;3.4;;;;;;;15.11;86.14453;948.5017;;;;
2022/07/08 06:37:30;;;;;;;4;2.3;;;;;;;;;;;;;
2022/07/08 06:39:56;;;;;;;7.2;2.7;;;;;;;;;;;;;
2022/07/08 06:42:20;;;;;;;4.1;2.9;;;;;;;;;;;;;
2022/07/08 06:44:45;;;;;;;3.9;2.6;;;;;;;;;;;;;
2022/07/08 06:47:11;;;;;;;4.3;2.2;;;;;;;;;;;;;
2022/07/08 06:49:38;;;;;;;5;2;;;;;;;;;;;;;
2022/07/08 06:52:03;;;;;;;5.5;2.2;;;;;;;;;;;;;
2022/07/08 06:54:37;;;;;;;4.1;2.2;;;;;;;;;;;;;
2022/07/08 06:56:53;;;;;;;5.8;2.2;;;;;;;;;;;;;
2022/07/08 06:59:18;;;;;;;8.1;2.1;;;;;;;;;;;;;
2022/07/08 07:01:45;;;;;;;3.4;1.5;;;;;;;;;;;;;
2022/07/08 07:04:11;;;;;;;4;1.6;;;;;;;;;;;;;
2022/07/08 07:06:36;;;;;;;4.9;1.7;;;;;;;;;;;;;
2022/07/08 07:09:01;;;;;;;4.8;1.8;;;;;;;;;;;;;
2022/07/08 07:11:27;;;;;;;3.8;1.7;;;;;;;;;;;;;
2022/07/08 07:13:52;;;;;;;5.7;2.1;;;;;;;;;;;;;
2022/07/08 07:16:18;;;;;;;3.7;2.2;;;;;;;;;;;;;
2022/07/08 07:18:44;;;;;;;5.6;2.1;;;;;;;;;;;;;
2022/07/08 07:21:09;;;;;;;5.4;2.2;;;;;;;;;;;;;
2022/07/08 07:23:34;;;;;;;5.8;2.6;;;;;;;;;;;;;
2022/07/08 07:26:01;;;;;;;3.7;1.5;;;;;;;;;;;;;
2022/07/08 07:28:26;;;;;;;5;1.8;;;;;;;;;;;;;
2022/07/08 07:30:52;;;;;;;4.3;1.7;;;;;;;;;;;;;
2022/07/08 07:33:17;;;;;;;5.8;1.9;;;;;;;;;;;;;
2022/07/08 07:35:43;;;;;;;6.3;1.8;;;;;;;;;;;;;
2022/07/08 07:38:08;;;;;;;7.2;2;;;;;;;;;;;;;
2022/07/08 07:40:36;;;;;;;4.1;1.8;;;;;;;;;;;;;
2022/07/08 07:43:01;;;;;;;4;1.7;;;;;;;;;;;;;
2022/07/08 07:45:26;;;;;;;6;1.9;;;;;;;;;;;;;
2022/07/08 07:47:52;;;;;;;6.4;2.1;;;;;;;;;;;;;
2022/07/08 07:50:17;;;;;;;6.4;2.3;;;;;;;;;;;;;
2022/07/08 07:52:42;;;;;;;4.6;1.9;;;;;;;;;;;;;
2022/07/08 07:55:09;;;;;;;4.7;2.2;;;;;;;;;;;;;
2022/07/08 07:57:33;;;;;;;3.6;1.8;;;;;;;;;;;;;
2022/07/08 07:59:59;;;;;;;3.7;2.1;;;;;;;;;;;;;
2022/07/08 08:02:24;;;;;;;5.6;2.2;;;;;;;;;;;;;
2022/07/08 08:04:50;;;;;;;6.6;2.4;;;;;;;;;;;;;
2022/07/08 08:07:15;;;;;;;6.1;1.9;;;;;;;;;;;;;
2022/07/08 08:09:40;;;;;;;4.6;1.7;;;;;;;;;;;;;
2022/07/08 08:12:05;;;;;;;4.4;1.7;;;;;;;;;;;;;
2022/07/08 08:14:31;;;;;;;3.8;1.7;;;;;;;;;;;;;
2022/07/08 08:16:56;;;;;;;4.1;1.6;;;;;;;;;;;;;
2022/07/08 08:19:23;;;;;;;6.6;2;;;;;;;;;;;;;
2022/07/08 08:21:48;;;;;;;6.3;2;;;;;;;;;;;;;
2022/07/08 08:24:14;;;;;;;7.5;2;;;;;;;;;;;;;
2022/07/08 08:26:39;;;;;;;5.7;2;;;;;;;;;;;;;
2022/07/08 08:29:05;;;;;;;7.6;2.5;;;;;;;;;;;;;
2022/07/08 08:31:31;;;;;;;5.6;2.2;;;;;;;;;;;;;
2022/07/08 08:33:56;;;;;;;4.7;2;;;;;;;;;;;;;
2022/07/08 08:36:23;;;;;;;6.4;2.1;;;;;;;;;;;;;
2022/07/08 08:38:50;;;;;;;5.5;2.3;;;;;;;;;;;;;
2022/07/08 08:41:13;;;;;;;3.2;2.2;;;;;;;;;;;;;
2022/07/08 08:43:39;;;;;;;5;2.2;;;;;;;;;;;;;
2022/07/08 08:46:04;;;;;;;5;2.1;;;;;;;;;;;;;
2022/07/08 08:48:30;;;;;;;4.7;2.7;;;;;;;;;;;;;
2022/07/08 08:50:56;;;;;;;4.6;2.3;;;;;;;;;;;;;
2022/07/08 08:53:21;;;;;;;6.3;2.4;;;;;;;;;;;;;
2022/07/08 08:55:47;;;;;;;6.2;2.3;;;;;;;;;;;;;
2022/07/08 08:58:12;;;;;;;5.1;2;;;;;;;;;;;;;
2022/07/08 09:00:38;;;;;;;4.4;1.9;;;;;;;;;;;;;
2022/07/08 09:03:04;;;;;;;3.4;1.9;;;;;;;;;;;;;
2022/07/08 09:05:29;;;;;;;6.7;2.2;;;;;;;;;;;;;
2022/07/08 09:07:56;;;;;;;3.5;1.6;;;;;;;;;;;;;
2022/07/08 09:10:20;;;;;;;2.6;1.8;;;;;;;;;;;;;
2022/07/08 09:12:47;;;;;;;4.2;2;;;;;;;;;;;;;
2022/07/08 09:15:16;;;;;;;4.6;1.5;;;;;;;;;;;;;
2022/07/08 09:17:41;;;;;;;3.1;1.7;;;;;;;;;;;;;
2022/07/08 09:20:06;;;;;;;4.4;1.9;;;;;;;;;;;;;
2022/07/08 09:22:33;;;;;;;3.2;1.6;;;;;;;;;;;;;
2022/07/08 09:24:58;;;;;;;5.5;2;;;;;;;;;;;;;
2022/07/08 09:27:27;;;;;;;3.1;1.9;;;;;;;;;;;;;
2022/07/08 09:29:48;;;;;;;6.3;1.9;;;;;;;;;;;;;
2022/07/08 09:32:13;;;;;;;2.6;1.6;;;;;;;;;;;;;
2022/07/08 09:34:38;;;;;;;3.7;1.9;;;;;;;;;;;;;
2022/07/08 09:37:04;;;;;;;2.7;1.6;;;;;;;;;;;;;
2022/07/08 09:39:29;;;;;;;2.8;2;;;;;;;;;;;;;
2022/07/08 09:41:54;;;;;;;2.3;1.6;;;;;;;;;;;;;
2022/07/08 09:44:20;;;;;;;3.8;1.9;;;;;;;;;;;;;
2022/07/08 09:46:47;;;;;;;4.8;2;;;;;;;;;;;;;
2022/07/08 09:49:11;;;;;;;3.5;2.1;;;;;;;;;;;;;
2022/07/08 09:51:37;;;;;;;3.3;1.8;;;;;;;;;;;;;
2022/07/08 09:54:02;;;;;;;3.3;2;;;;;;;;;;;;;
2022/07/08 09:56:28;;;;;;;2.8;1.7;;;;;;;;;;;;;
2022/07/08 09:58:52;;;;;;;2.6;1.6;;;;;;;;;;;;;
2022/07/08 10:01:19;;;;;;;2.1;1.7;;;;;;;;;;;;;
2022/07/08 10:03:44;;;;;;;3.8;1.7;;;;;;;;;;;;;
2022/07/08 10:06:10;;;;;;;1.7;1.6;;;;;;;;;;;;;
2022/07/08 10:08:35;;;;;;;2.8;1.5;;;;;;;;;;;;;
2022/07/08 10:11:03;;;;;;;4.1;1.8;;;;;;;;;;;;;
2022/07/08 10:13:26;;;;;;;4.9;1.7;;;;;;;;;;;;;
2022/07/08 10:15:52;;;;;;;2.5;1.6;;;;;;;;;;;;;
2022/07/08 10:18:17;;;;;;;2;1.7;;;;;;;;;;;;;
2022/07/08 10:20:44;;;;;;;2.2;1.8;;;;;;;;;;;;;
2022/07/08 10:23:09;;;;;;;2.9;1.6;;;;;;;;;;;;;
2022/07/08 10:25:36;;;;;;;2.9;1.6;;;;;;;;;;;;;
2022/07/08 10:28:01;;;;;;;2.6;1.7;;;;;;;;;;;;;
2022/07/08 10:30:32;;;;;;;4;1.5;;;;;;;;;;;;;
2022/07/08 10:32:55;;;;;;;2.7;1.6;;;;;;;;;;;;;
2022/07/08 10:35:20;;;;;;;3.3;1.5;;;;;;;;;;;;;
2022/07/08 10:37:45;;;;;;;2.4;1.3;;;;;;;;;;;;;
2022/07/08 10:40:11;;;;;;;1.6;1.3;;;;;;;;;;;;;
2022/07/08 10:42:37;;;;;;;1.9;1.3;;;;;;;;;;;;;
2022/07/08 10:45:09;;;;;;;2.6;1.6;;;;;;;;;;;;;
2022/07/08 10:47:34;;;;;;;5.2;1.6;;;;;;;;;;;;;
2022/07/08 10:49:59;;;;;;;2.3;1.3;;;;;;;;;;;;;
2022/07/08 10:52:24;;;;;;;1.7;1.3;;;;;;;;;;;;;
2022/07/08 10:54:50;;;;;;;2.2;1.3;;;;;;;;;;;;;
2022/07/08 10:57:15;;;;;;;4.8;1.8;;;;;;;;;;;;;
2022/07/08 10:59:40;;;;;;;2.2;1.5;;;;;;;;;;;;;
2022/07/08 11:02:06;;;;;;;2.6;1.7;;;;;;;;;;;;;
2022/07/08 11:04:31;;;;;;;1.5;1.4;;;;;;;;;;;;;
2022/07/08 11:06:57;;;;;;;2.3;1.3;;;;;;;;;;;;;
2022/07/08 11:09:22;;;;;;;2;1.4;;;;;;;;;;;;;
2022/07/08 11:11:47;;;;;;;2.2;1.3;;;;;;;;;;;;;
2022/07/08 11:14:12;;;;;;;1.6;1.2;;;;;;;;;;;;;
2022/07/08 11:16:39;;;;;;;1.5;1.2;;;;;;;;;;;;;
2022/07/08 11:19:04;;;;;;;2.4;1.1;;;;;;;;;;;;;
2022/07/08 11:21:30;;;;;;;1.7;1.1;;;;;;;;;;;;;
2022/07/08 11:23:56;;;;;;;1.7;1.3;;;;;;;;;;;;;
2022/07/08 11:26:20;;;;;;;3;1.4;;;;;;;;;;;;;
2022/07/08 11:28:45;;;;;;;1.8;1.1;;;;;;;;;;;;;
2022/07/08 11:31:12;;;;;;;2.3;1.1;;;;;;;;;;;;;
2022/07/08 11:33:37;;;;;;;1.8;1.4;;;;;;;;;;;;;
2022/07/08 11:36:03;;;;;;;1.8;1.3;;;;;;;;;;;;;
2022/07/08 11:38:28;;;;;;;2.2;1.2;;;;;;;;;;;;;
2022/07/08 11:40:53;;;;;;;2.2;1.3;;;;;;;;;;;;;
2022/07/08 11:43:18;;;;;;;3;1;;;;;;;;;;;;;
2022/07/08 11:45:45;;;;;;;3;1.2;;;;;;;;;;;;;
2022/07/08 11:48:09;;;;;;;2.4;1.2;;;;;;;;;;;;;
2022/07/08 11:50:34;;;;;;;2;1.2;;;;;;;;;;;;;
2022/07/08 11:52:59;;;;;;;1.8;1.2;;;;;;;;;;;;;
2022/07/08 11:55:24;;;;;;;2.2;1.4;;;;;;;;;;;;;
2022/07/08 11:57:50;;;;;;;1.3;1.3;;;;;;;;;;;;;
2022/07/08 12:00:19;;;;;;;2.1;1.4;;;;;;;;;;;;;
2022/07/08 12:02:44;;;;;;;2.1;1.4;;;;;;;;;;;;;
2022/07/08 12:05:12;;;;;;;2;1.3;;;;;;;;;;;;;
2022/07/08 12:07:41;;;;;;;4.2;1.7;;;;;;;;;;;;;
2022/07/08 12:10:04;;;;;;;3.7;1.4;;;;;;;;;;;;;
2022/07/08 12:12:30;;;;;;;2.7;1.1;;;;;;;;;;;;;
2022/07/08 12:14:55;;;;;;;2.6;1.6;;;;;;;;;;;;;
2022/07/08 12:17:21;;;;;;;1.9;1.3;;;;;;;;;;;;;
2022/07/08 12:19:46;;;;;;;1.3;1.1;;;;;;;;;;;;;
2022/07/08 12:22:13;;;;;;;1.5;1.1;;;;;;;;;;;;;
2022/07/08 12:24:38;;;;;;;1.6;1.1;;;;;;;;;;;;;
2022/07/08 12:27:03;;;;;;;1.7;1.2;;;;;;;;;;;;;
2022/07/08 12:29:29;;;;;;;2;1.3;;;;;;;;;;;;;
2022/07/08 12:31:54;;;;;;;2.2;1.1;;;;;;;;;;;;;
2022/07/08 12:34:19;;;;;;;1.8;1.4;;;;;;;;;;;;;
2022/07/08 12:36:44;;;;;;;1.9;1.1;;;;;;;;;;;;;
2022/07/08 12:39:10;;;;;;;2.2;1.3;;;;;;;;;;;;;
2022/07/08 12:41:36;;;;;;;1.4;1.1;;;;;;;;;;;;;
2022/07/08 12:44:01;;;;;;;3.4;1.6;;;;;;;;;;;;;
2022/07/08 12:46:34;;;;;;;3.1;1.6;;;;;;;;;;;;;
2022/07/08 12:48:54;;;;;;;2.8;1.5;;;;;;;;;;;;;
2022/07/08 12:51:19;;;;;;;1.9;1.3;;;;;;;;;;;;;
2022/07/08 12:53:44;;;;;;;2.3;1.4;;;;;;;;;;;;;
2022/07/08 12:56:09;;;;;;;2;1.5;;;;;;;;;;;;;
2022/07/08 12:58:36;;;;;;;2;1.4;;;;;;;;;;;;;
2022/07/08 13:01:01;;;;;;;2.4;1.7;;;;;;;;;;;;;
2022/07/08 13:03:27;;;;;;;2.1;1.3;;;;;;;;;;;;;
2022/07/08 13:05:52;;;;;;;2.9;1.4;;;;;;;;;;;;;
2022/07/08 13:08:17;;;;;;;2;1.5;;;;;;;;;;;;;
2022/07/08 13:10:43;;;;;;;2.9;1.7;;;;;;;;;;;;;
2022/07/08 13:13:50;;;;;;;1.8;1.2;;;;;;;;;;;;;
2022/07/08 13:15:54;;;;;;;2.3;1.4;;;;;;;;;;;;;
2022/07/08 13:18:19;;;;;;;3.3;1.3;;;;;;;;;;;;;
2022/07/08 13:20:44;;;;;;;2.9;1.4;;;;;;;;;;;;;
2022/07/08 13:23:12;;;;;;;2.3;1.2;;;;;;;;;;;;;
2022/07/08 13:25:36;;;;;;;2.4;1.7;;;;;;;;;;;;;
2022/07/08 13:28:02;;;;;;;3.3;1.6;;;;;;;;;;;;;
2022/07/08 13:30:27;;;;;;;3;1.8;;;;;;;;;;;;;
2022/07/08 13:32:53;;;;;;;2;1.3;;;;;;;;;;;;;
2022/07/08 13:35:18;;;;;;;2.9;1.4;;;;;;;;;;;;;
2022/07/08 13:37:45;;;;;;;2.6;1.4;;;;;;;;;;;;;
2022/07/08 13:40:10;;;;;;;2.6;1.4;;;;;;;;;;;;;
2022/07/08 13:42:48;;;;;;;2.6;1.3;;;;;;;;;;;;;
2022/07/08 13:45:15;;;;;;;2.9;1.6;;;;;;;;;;;;;
2022/07/08 13:49:00;;;;;;;;;;;;;;;;;;;;;
2022/07/08 13:50:36;;;;;;;2.7;1.8;;;;;;;;;;;;;
2022/07/08 13:52:48;;;;;;;2.7;1.4;;;;;;;;;;;;;
2022/07/08 13:55:14;;;;;;;2.5;1.4;;;;;;;;;;;;;
2022/07/08 13:57:42;;;;;;;2;1.3;;;;;;;;;;;;;
2022/07/08 14:00:07;;;;;;;3.3;1.5;;;;;;;;;;;;;
2022/07/08 14:02:33;;;;;;;2.5;1.2;;;;;;;;;;;;;
2022/07/08 14:04:58;;;;;;;3.3;1.6;;;;;;;;;;;;;
2022/07/08 14:07:24;;;;;;;2.6;1.5;;;;;;;;;;;;;
2022/07/08 14:09:49;;;;;;;2.1;1.2;;;;;;;;;;;;;
2022/07/08 14:12:18;;;;;;;2.3;1.6;;;;;;;;;;;;;
2022/07/08 14:14:41;;;;;;;2.9;1.4;;;;;;;;;;;;;
2022/07/08 14:17:06;;;;;;;2.9;1.7;;;;;;;;;;;;;
2022/07/08 14:19:31;;;;;;;1.9;1.2;;;;;;;;;;;;;
2022/07/08 14:21:57;;;;;;;3.4;1.6;;;;;;;;;;;;;
2022/07/08 14:24:23;;;;;;;3.4;1.6;;;;;;;;;;;;;
2022/07/08 14:26:48;;;;;;;2.6;1.5;;;;;;;;;;;;;
2022/07/08 14:29:13;;;;;;;4.6;1.5;;;;;;;;;;;;;
2022/07/08 14:31:39;;;;;;;3.6;1.3;;;;;;;;;;;;;
2022/07/08 14:34:04;;;;;;;2.5;1.4;;;;;;;;;;;;;
2022/07/08 14:36:30;;;;;;;3.8;1.5;;;;;;;;;;;;;
2022/07/08 14:38:55;;;;;;;3.2;1.7;;;;;;;;;;;;;
2022/07/08 14:41:22;;;;;;;2.7;1.5;;;;;;;;;;;;;
2022/07/08 14:43:48;;;;;;;3.3;1.5;;;;;;;;;;;;;
2022/07/08 14:46:14;;;;;;;2.6;1.6;;;;;;;;;;;;;
2022/07/08 14:48:39;;;;;;;2.1;1.5;;;;;;;;;;;;;
2022/07/08 14:51:05;;;;;;;2.4;1.4;;;;;;;;;;;;;
2022/07/08 14:53:31;;;;;;;2;1.4;;;;;;;;;;;;;
2022/07/08 14:55:56;;;;;;;3.4;1.7;;;;;;;;;;;;;
2022/07/08 14:58:22;;;;;;;3.1;1.6;;;;;;;;;;;;;
2022/07/08 15:00:49;;;;;;;3.6;1.7;;;;;;;;;;;;;
2022/07/08 15:03:14;;;;;;;2.2;1.6;;;;;;;;;;;;;
2022/07/08 15:05:39;;;;;;;5;1.7;;;;;;;;;;;;;
2022/07/08 15:08:05;;;;;;;3.9;1.7;;;;;;;;;;;;;
2022/07/08 15:10:32;;;;;;;2.6;1.7;;;;;;;;;;;;;
2022/07/08 15:13:00;;;;;;;3.4;1.8;;;;;;;;;;;;;
2022/07/08 15:15:22;;;;;;;3.1;1.6;;;;;;;;;;;;;
2022/07/08 15:17:47;;;;;;;3.1;1.6;;;;;;;;;;;;;
2022/07/08 15:20:12;;;;;;;2.7;1.4;;;;;;;;;;;;;
2022/07/08 15:22:37;;;;;;;4;1.8;;;;;;;;;;;;;
2022/07/08 15:25:03;;;;;;;2.5;1.4;;;;;;;;;;;;;
2022/07/08 15:27:33;;;;;;;1.9;1.3;;;;;;;;;;;;;
2022/07/08 15:29:55;;;;;;;3.4;1.7;;;;;;;;;;;;;
2022/07/08 15:32:21;;;;;;;2.7;1.5;;;;;;;;;;;;;
2022/07/08 15:34:46;;;;;;;3.3;1.5;;;;;;;;;;;;;
2022/07/08 15:37:12;;;;;;;1.9;1.5;;;;;;;;;;;;;
2022/07/08 15:39:37;;;;;;;2.4;1.7;;;;;;;;;;;;;
2022/07/08 15:42:04;;;;;;;3.3;1.8;;;;;;;;;;;;;
2022/07/08 15:44:28;;;;;;;2.1;1.4;;;;;;;;;;;;;
2022/07/08 15:46:55;;;;;;;3;1.5;;;;;;;;;;;;;
2022/07/08 15:49:20;;;;;;;1.9;1.3;;;;;;;;;;;;;
2022/07/08 15:51:48;;;;;;;2.5;1.8;;;;;;;;;;;;;
2022/07/08 15:54:13;;;;;;;2.6;1.7;;;;;;;;;;;;;
2022/07/08 15:56:38;;;;;;;3.5;1.8;;;;;;;;;;;;;
2022/07/08 15:59:04;;;;;;;2.9;1.6;;;;;;;;;;;;;
2022/07/08 16:01:31;;;;;;;2.2;1.7;;;;;;;;;;;;;
2022/07/08 16:03:55;;;;;;;4.5;1.8;;;;;;;;;;;;;
2022/07/08 16:06:20;;;;;;;1.9;1.4;;;;;;;;;;;;;
2022/07/08 16:08:45;;;;;;;3.3;1.8;;;;;;;;;;;;;
2022/07/08 16:11:11;;;;;;;3.8;1.7;;;;;;;;;;;;;
2022/07/08 16:13:36;;;;;;;4.2;1.7;;;;;;;;;;;;;
2022/07/08 16:16:03;;;;;;;4.5;1.8;;;;;;;;;;;;;
2022/07/08 16:18:28;;;;;;;2.9;1.5;;;;;;;;;;;;;
2022/07/08 16:20:53;;;;;;;3.3;1.9;;;;;;;;;;;;;
2022/07/08 16:23:18;;;;;;;3.6;1.6;;;;;;;;;;;;;
2022/07/08 16:25:45;;;;;;;3.8;1.7;;;;;;;;;;;;;
2022/07/08 16:28:09;;;;;;;4;1.4;;;;;;;;;;;;;
2022/07/08 16:30:36;;;;;;;3.7;1.4;;;;;;;;;;;;;
2022/07/08 16:33:01;;;;;;;4.7;1.5;;;;;;;;;;;;;
2022/07/08 16:35:27;;;;;;;3.7;1.6;;;;;;;;;;;;;
2022/07/08 16:37:51;;;;;;;3.1;1.5;;;;;;;;;;;;;
2022/07/08 16:40:19;;;;;;;2;1.3;;;;;;;;;;;;;
2022/07/08 16:42:44;;;;;;;3.1;1.4;;;;;;;;;;;;;
2022/07/08 16:45:13;;;;;;;3.4;1.6;;;;;;;;;;;;;
2022/07/08 16:47:43;;;;;;;2.8;1.6;;;;;;;;;;;;;
2022/07/08 16:50:07;;;;;;;2.4;1.6;;;;;;;;;;;;;
2022/07/08 16:52:33;;;;;;;3;1.8;;;;;;;;;;;;;
2022/07/08 16:54:58;;;;;;;3.6;1.7;;;;;;;;;;;;;
2022/07/08 16:57:23;;;;;;;3;1.6;;;;;;;;;;;;;
2022/07/08 16:59:48;;;;;;;1.7;1.6;;;;;;;;;;;;;
2022/07/08 17:02:16;;;;;;;2.6;1.9;;;;;;;;;;;;;
2022/07/08 17:04:41;;;;;;;3.3;1.8;;;;;;;;;;;;;
2022/07/08 17:07:06;;;;;;;3.5;1.8;;;;;;;;;;;;;
2022/07/08 17:09:31;;;;;;;2.1;1.8;;;;;;;;;;;;;
2022/07/08 17:11:57;;;;;;;4.3;1.7;;;;;;;;;;;;;
2022/07/08 17:14:23;;;;;;;3.3;1.6;;;;;;;;;;;;;
2022/07/08 17:16:48;;;;;;;3;1.9;;;;;;;;;;;;;
2022/07/08 17:19:13;;;;;;;2.6;1.7;;;;;;;;;;;;;
2022/07/08 17:21:39;;;;;;;2.4;1.7;;;;;;;;;;;;;
2022/07/08 17:24:04;;;;;;;3.9;1.7;;;;;;;;;;;;;
2022/07/08 17:26:29;;;;;;;2.6;1.8;;;;;;;;;;;;;
2022/07/08 17:29:47;;;;;;;3.6;1.7;;;;;;;;;;;;;
2022/07/08 17:31:20;;;;;;;2.8;1.8;;;;;;;;;;;;;
2022/07/08 17:33:45;;;;;;;4.7;1.9;;;;;;;;;;;;;
2022/07/08 17:36:11;;;;;;;4.3;1.9;;;;;;;;;;;;;
2022/07/08 17:38:37;;;;;;;3;2;;;;;;;;;;;;;
2022/07/08 17:41:02;;;;;;;3.6;1.8;;;;;;;;;;;;;
2022/07/08 17:43:29;;;;;;;3.2;1.9;;;;;;;;;;;;;
2022/07/08 17:45:54;;;;;;;3.6;2;;;;;;;;;;;;;
2022/07/08 17:48:34;;;;;;;4.1;1.9;;;;;;;;;;;;;
2022/07/08 17:50:51;;;;;;;3.6;1.8;;;;;;;;;;;;;
2022/07/08 17:53:24;;;;;;;4.1;1.8;;;;;;;;;;;;;
2022/07/08 17:55:49;;;;;;;2;1.5;;;;;;;;;;;;;
2022/07/08 17:58:15;;;;;;;2.3;1.7;;;;;;;;;;;;;
2022/07/08 18:00:40;;;;;;;4.1;2.5;;;;;;;;;;;;;
2022/07/08 18:03:05;;;;;;;7.2;3.4;;;;;;;;;;;;;
2022/07/08 18:05:32;;;;;;;3.7;2.3;;;;;;;;;;;;;
2022/07/08 18:08:00;;;;;;;4;1.9;;;;;;;;;;;;;
2022/07/08 18:10:25;;;;;;;3.7;1.9;;;;;;;;;;;;;
2022/07/08 18:12:52;;;;;;;3.3;1.9;;;;;;;;;;;;;
2022/07/08 18:15:17;;;;;;;5;1.9;;;;;;;;;;;;;
2022/07/08 18:17:42;;;;;;;3.2;1.8;;;;;;;;;;;;;
2022/07/08 18:20:08;;;;;;;3.3;1.8;;;;;;;;;;;;;
2022/07/08 18:22:33;;;;;;;4;2;;;;;;;;;;;;;
2022/07/08 18:24:59;;;;;;;4.4;1.9;;;;;;;;;;;;;
2022/07/08 18:27:24;;;;;;;5.3;2.8;;;;;;;;;;;;;
2022/07/08 18:29:50;;;;;;;4.6;2.1;;;;;;;;;;;;;
2022/07/08 18:32:15;;;;;;;3.1;2;;;;;;;;;;;;;
2022/07/08 18:34:42;;;;;;;2.9;1.6;;;;;;;;;;;;;
2022/07/08 18:37:06;;;;;;;3.6;1.9;;;;;;;;;;;;;
2022/07/08 18:39:33;;;;;;;2.4;1.6;;;;;;;;;;;;;
2022/07/08 18:41:58;;;;;;;4.2;1.9;;;;;;;;;;;;;
2022/07/08 18:44:24;;;;;;;3.4;1.6;;;;;;;;;;;;;
2022/07/08 18:46:49;;;;;;;2.7;1.9;;;;;;;;;;;;;
2022/07/08 18:49:15;;;;;;;3.1;1.9;;;;;;;;;;;;;
2022/07/08 18:51:40;;;;;;;2.2;2;;;;;;;;;;;;;
2022/07/08 18:54:06;;;;;;;5.7;2.2;;;;;;;;;;;;;
2022/07/08 18:56:31;;;;;;;3.7;1.7;;;;;;;;;;;;;
2022/07/08 18:58:57;;;;;;;4;1.9;;;;;;;;;;;;;
2022/07/08 19:01:22;;;;;;;3.2;1.8;;;;;;;;;;;;;
2022/07/08 19:03:49;;;;;;;2.9;1.8;;;;;;;;;;;;;
2022/07/08 19:06:14;;;;;;;3.6;2.1;;;;;;;;;;;;;
2022/07/08 19:08:40;;;;;;;3.2;2;;;;;;;;;;;;;
2022/07/08 19:11:05;;;;;;;2.6;1.7;;;;;;;;;;;;;
2022/07/08 19:13:31;;;;;;;3.8;2.2;;;;;;;;;;;;;
2022/07/08 19:15:56;;;;;;;2.9;1.7;;;;;;;;;;;;;
2022/07/08 19:18:23;;;;;;;2.6;1.8;;;;;;;;;;;;;
2022/07/08 19:20:48;;;;;;;5;2.1;;;;;;;;;;;;;
2022/07/08 19:23:14;;;;;;;2.8;1.7;;;;;;;;;;;;;
2022/07/08 19:25:39;;;;;;;2.9;2;;;;;;;;;;;;;
2022/07/08 19:28:06;;;;;;;4.2;2.3;;;;;;;;;;;;;
2022/07/08 19:30:31;;;;;;;4.2;2.1;;;;;;;;;;;;;
2022/07/08 19:32:58;;;;;;;2.3;2.1;;;;;;;;;;;;;